메인 페이지
METAR-TAF:

METAR-TAF

공항 :

엘살바도르, 엘살바도르

엘살바도르 국제공항

위도: 13-26N, 경도: 089-03W, 고도: 25m

현재 날씨관측

예보는 1 시간 1분 전, 03:50시(UTC)에 발표되었습니다.
북북동8kt
온도 27°C
습도 51%
기압 1013 hPa
시정 10km 이상
1500m 미만 상공 구름 및 적란운 없음

METAR: MSLP 200350Z 02008KT CAVOK 27/16 Q1013 A2991 NOSIG

시각: 22:51 (04:51 UTC)

예보

예보는 7 시간 26분 전, 21:25시(UTC)에 발표되었습니다.
예보 대상 시간: 20일 00시부터 20일 24시까지 (UTC)
북북동12kt, 순간 최대 풍속 23kt
시정 10km 이상
고도 7000ft 상공 구름 조금
일시적
20일 19시부터 20일 24시까지 (UTC)
남남서8kt
시정 10km 이상
고도 6000ft 상공 구름 조금

TAF: MSLP 192125Z 2000/2024 02012G23KT 9999 FEW070 TX33/2018Z TN22/2012Z TEMPO 2019/2024 20008KT 9999 FEW060

4,000개 이상의 공항 관측 자료 및 예보 (METAR 및 TAF 보고).

지도상에서 검색 가능한 기상관측소가 노란 점과 빨간 점으로 표시되어 있습니다.

기상관측소 명을 보려면 표시 위로 마우스를 이동하세요.

날씨 관측과 예보를 보려면 클릭하세요.

지도 변경 : 확대하려면 엑스 표시가 있는 녹색 버튼, 축소하려면 빼기 표시가 있는 녹색 버튼, 다음 페이지의 지도를 보려면 녹색 화살표를 클릭하세요.


METAR-TAF: